Time;durP1;ratioP1;P1;durP2;ratioP2;P2;SDS_P1;SDS_P2;PMS_P1;PMS_P2;Temp;Humidity;BMP_temperature;BMP_pressure;BME280_temperature;BME280_humidity;BME280_pressure;Samples;Min_cycle;Max_cycle;Signal;HPM_P1;HPM_P2
2022/09/02 00:00:47;;;;;;;2.70;0.47;;;19.10;47.70;;;;;;5074200;28;20031;-28
2022/09/02 00:03:14;;;;;;;0.93;0.40;;;19.10;47.70;;;;;;5074281;28;20116;-29
2022/09/02 00:05:40;;;;;;;0.77;0.50;;;19.10;47.70;;;;;;5073101;28;20539;-27
2022/09/02 00:08:06;;;;;;;0.32;0.32;;;19.10;47.80;;;;;;5074416;28;20070;-26
2022/09/02 00:10:38;;;;;;;0.35;0.30;;;19.10;47.90;;;;;;5074023;28;20476;-29
2022/09/02 00:13:06;;;;;;;0.93;0.47;;;19.00;47.90;;;;;;5073963;28;20507;-27
2022/09/02 00:15:32;;;;;;;1.48;0.50;;;19.00;47.90;;;;;;5073889;28;20017;-26
2022/09/02 00:17:59;;;;;;;0.43;0.40;;;19.00;47.90;;;;;;5074059;28;20095;-27
2022/09/02 00:20:25;;;;;;;2.45;0.50;;;19.00;48.00;;;;;;5073529;28;20136;-27
2022/09/02 00:22:51;;;;;;;0.63;0.45;;;18.90;48.00;;;;;;5073732;28;20021;-27
2022/09/02 00:25:17;;;;;;;0.32;0.30;;;18.90;48.10;;;;;;5073929;28;20039;-27
2022/09/02 00:27:42;;;;;;;0.43;0.43;;;18.90;48.20;;;;;;5073704;28;20514;-25
2022/09/02 00:30:08;;;;;;;0.50;0.35;;;18.80;48.20;;;;;;5073628;28;20108;-30
2022/09/02 00:32:34;;;;;;;0.52;0.50;;;18.80;48.30;;;;;;5073539;28;20047;-26
2022/09/02 00:35:00;;;;;;;0.68;0.45;;;18.70;48.40;;;;;;5073733;28;20033;-27
2022/09/02 00:37:26;;;;;;;0.60;0.50;;;18.70;48.40;;;;;;5073418;28;20499;-29
2022/09/02 00:39:53;;;;;;;0.60;0.40;;;18.70;48.50;;;;;;5072824;28;20028;-26
2022/09/02 00:42:20;;;;;;;0.73;0.40;;;18.70;48.60;;;;;;5073590;28;20028;-25
2022/09/02 00:44:46;;;;;;;0.60;0.30;;;18.60;48.60;;;;;;5055411;28;20016;-28
2022/09/02 00:47:12;;;;;;;1.92;0.38;;;18.60;48.70;;;;;;5073331;28;20041;-27
2022/09/02 00:49:41;;;;;;;1.88;0.60;;;18.60;48.80;;;;;;5073425;28;20028;-27
2022/09/02 00:52:19;;;;;;;0.43;0.43;;;18.50;48.80;;;;;;5073453;28;20021;-26
2022/09/02 00:54:48;;;;;;;0.85;0.30;;;18.50;48.80;;;;;;5073300;28;20020;-26
2022/09/02 00:57:18;;;;;;;0.73;0.40;;;18.50;48.90;;;;;;5073398;28;20040;-28
2022/09/02 01:00:00;;;;;;;0.30;0.30;;;18.40;48.90;;;;;;5071674;28;20096;-27
2022/09/02 01:02:27;;;;;;;2.95;0.40;;;18.40;49.00;;;;;;5073239;28;20025;-28
2022/09/02 01:04:55;;;;;;;1.58;0.40;;;18.40;49.00;;;;;;5073214;28;20406;-27
2022/09/02 01:07:22;;;;;;;3.53;0.55;;;18.40;49.10;;;;;;5073203;28;20183;-27
2022/09/02 01:09:49;;;;;;;1.95;0.40;;;18.40;49.20;;;;;;5073148;28;20020;-27
2022/09/02 01:12:15;;;;;;;1.75;0.40;;;18.30;49.20;;;;;;5072872;28;20502;-26
2022/09/02 01:14:41;;;;;;;0.65;0.45;;;18.30;49.20;;;;;;5072696;28;20021;-29
2022/09/02 01:17:07;;;;;;;0.70;0.50;;;18.30;49.30;;;;;;5073119;28;20028;-26
2022/09/02 01:19:37;;;;;;;1.65;0.32;;;18.30;49.30;;;;;;5072887;28;20395;-26
2022/09/02 01:22:14;;;;;;;0.45;0.43;;;18.30;49.30;;;;;;5073032;28;20028;-26
2022/09/02 01:24:40;;;;;;;0.70;0.25;;;18.20;49.30;;;;;;5072672;28;20363;-26
2022/09/02 01:27:05;;;;;;;0.47;0.30;;;18.30;49.40;;;;;;5071750;28;20095;-27
2022/09/02 01:29:31;;;;;;;0.38;0.30;;;18.20;49.40;;;;;;5072672;28;20020;-26
2022/09/02 01:31:57;;;;;;;0.57;0.43;;;18.20;49.40;;;;;;5071591;28;20024;-26
2022/09/02 01:34:23;;;;;;;0.38;0.35;;;18.20;49.40;;;;;;5072829;28;20048;-27
2022/09/02 01:36:49;;;;;;;0.88;0.50;;;18.20;49.40;;;;;;5072642;28;20031;-28
2022/09/02 01:39:15;;;;;;;0.77;0.43;;;18.20;49.50;;;;;;5072624;28;20472;-26
2022/09/02 01:41:41;;;;;;;0.73;0.45;;;18.20;49.50;;;;;;5073257;28;20025;-26
2022/09/02 01:44:07;;;;;;;0.40;0.40;;;18.20;49.50;;;;;;5073105;28;20103;-27
2022/09/02 01:46:35;;;;;;;0.65;0.30;;;18.20;49.50;;;;;;5072323;28;20523;-26
2022/09/02 01:49:00;;;;;;;0.73;0.40;;;18.20;49.50;;;;;;5072998;28;20111;-26
2022/09/02 01:51:27;;;;;;;1.00;0.50;;;18.20;49.50;;;;;;5072563;28;20533;-26
2022/09/02 01:53:53;;;;;;;0.43;0.40;;;18.20;49.50;;;;;;5072788;28;20038;-27
2022/09/02 01:56:18;;;;;;;0.60;0.35;;;18.20;49.50;;;;;;5072967;28;20397;-28
2022/09/02 01:58:44;;;;;;;3.25;0.30;;;18.20;49.50;;;;;;5072472;28;20043;-28
2022/09/02 02:01:10;;;;;;;1.52;0.30;;;18.20;49.50;;;;;;5072506;28;20112;-28
2022/09/02 02:03:37;;;;;;;1.17;0.55;;;18.20;49.50;;;;;;5072652;28;20333;-29
2022/09/02 02:06:13;;;;;;;1.75;0.63;;;18.20;49.50;;;;;;5072548;28;20064;-26
2022/09/02 02:08:39;;;;;;;0.45;0.22;;;18.20;49.50;;;;;;5072371;28;20024;-27
2022/09/02 02:11:05;;;;;;;0.68;0.40;;;18.20;49.50;;;;;;5072562;28;20094;-26
2022/09/02 02:13:31;;;;;;;0.32;0.30;;;18.20;49.50;;;;;;5072157;28;20086;-27
2022/09/02 02:15:57;;;;;;;0.88;0.35;;;18.20;49.50;;;;;;5072185;28;20039;-26
2022/09/02 02:18:23;;;;;;;0.38;0.20;;;18.20;49.50;;;;;;5072645;28;20024;-26
2022/09/02 02:20:48;;;;;;;1.35;0.38;;;18.20;49.50;;;;;;5072079;28;20143;-25
2022/09/02 02:23:14;;;;;;;0.75;0.30;;;18.20;49.50;;;;;;5072268;28;20101;-26
2022/09/02 02:25:40;;;;;;;1.02;0.40;;;18.20;49.50;;;;;;5072203;28;20036;-26
2022/09/02 02:28:06;;;;;;;3.17;0.40;;;18.20;49.50;;;;;;5072306;28;20476;-26
2022/09/02 02:30:32;;;;;;;2.72;0.40;;;18.20;49.50;;;;;;5072344;28;20036;-27
2022/09/02 02:32:57;;;;;;;0.50;0.25;;;18.20;49.60;;;;;;5072048;28;20043;-27
2022/09/02 02:35:23;;;;;;;2.88;0.50;;;18.20;49.60;;;;;;5072292;28;20040;-27
2022/09/02 02:37:49;;;;;;;1.15;0.52;;;18.20;49.60;;;;;;5072986;28;20103;-27
2022/09/02 02:40:22;;;;;;;1.58;0.55;;;18.20;49.70;;;;;;5072250;28;20107;-27
2022/09/02 02:42:48;;;;;;;0.32;0.30;;;18.20;49.60;;;;;;5072103;28;20025;-29
2022/09/02 02:45:15;;;;;;;1.45;0.50;;;18.10;49.60;;;;;;5071921;28;20060;-27
2022/09/02 02:47:44;;;;;;;0.60;0.40;;;18.10;49.60;;;;;;5072060;28;20103;-26
2022/09/02 02:50:12;;;;;;;1.60;0.50;;;18.10;49.60;;;;;;5072612;28;20052;-27
2022/09/02 02:52:40;;;;;;;0.50;0.40;;;18.10;49.60;;;;;;5072091;28;20032;-27
2022/09/02 02:55:07;;;;;;;1.50;0.50;;;18.20;49.70;;;;;;5070593;28;20116;-26
2022/09/02 02:57:34;;;;;;;0.17;0.17;;;18.20;49.70;;;;;;5071864;28;20029;-26
2022/09/02 03:00:12;;;;;;;0.47;0.30;;;18.20;49.70;;;;;;5072061;28;20502;-26
2022/09/02 03:02:38;;;;;;;0.50;0.40;;;18.20;49.70;;;;;;5072258;28;20052;-27
2022/09/02 03:05:07;;;;;;;0.30;0.30;;;18.20;49.70;;;;;;5075673;28;20028;-28
2022/09/02 03:07:33;;;;;;;0.50;0.43;;;18.20;49.70;;;;;;5075386;28;20021;-27
2022/09/02 03:09:59;;;;;;;1.10;0.60;;;18.10;49.70;;;;;;5075191;28;20039;-26
2022/09/02 03:12:25;;;;;;;1.77;0.40;;;18.10;49.70;;;;;;5075512;28;20392;-26
2022/09/02 03:14:51;;;;;;;0.75;0.50;;;18.10;49.70;;;;;;5075114;28;20031;-26
2022/09/02 03:17:16;;;;;;;0.30;0.30;;;18.10;49.70;;;;;;5075250;28;20033;-27
2022/09/02 03:19:42;;;;;;;0.57;0.45;;;18.10;49.80;;;;;;5073930;28;20020;-27
2022/09/02 03:22:09;;;;;;;1.15;0.40;;;18.00;49.80;;;;;;5075032;28;20070;-28
2022/09/02 03:24:36;;;;;;;1.90;0.40;;;18.10;49.90;;;;;;5075367;28;20025;-25
2022/09/02 03:27:03;;;;;;;0.57;0.50;;;18.00;50.00;;;;;;5074916;28;20074;-27
2022/09/02 03:29:28;;;;;;;2.50;0.52;;;18.00;50.00;;;;;;5075065;28;20029;-28
2022/09/02 03:31:54;;;;;;;0.52;0.45;;;18.00;50.00;;;;;;5074708;28;20029;-28
2022/09/02 03:34:20;;;;;;;0.40;0.40;;;17.90;50.00;;;;;;5074834;28;20043;-26
2022/09/02 03:36:45;;;;;;;0.32;0.32;;;17.90;50.00;;;;;;5073484;28;20418;-27
2022/09/02 03:39:11;;;;;;;1.27;0.50;;;18.00;50.10;;;;;;5074874;28;20036;-26
2022/09/02 03:41:39;;;;;;;1.20;0.57;;;17.90;50.00;;;;;;5074713;28;20021;-27
2022/09/02 03:44:06;;;;;;;0.40;0.40;;;17.90;50.00;;;;;;5074951;28;20155;-26
2022/09/02 03:46:32;;;;;;;1.33;0.40;;;18.00;50.20;;;;;;5074520;28;20048;-26
2022/09/02 03:48:58;;;;;;;1.70;0.40;;;17.90;50.20;;;;;;5074867;28;20029;-26
2022/09/02 03:51:25;;;;;;;1.15;0.55;;;17.90;50.20;;;;;;5074661;28;20033;-29
2022/09/02 03:53:51;;;;;;;1.13;0.60;;;17.90;50.20;;;;;;5073353;28;20047;-26
2022/09/02 03:56:18;;;;;;;0.60;0.50;;;17.90;50.30;;;;;;5074553;28;20025;-27
2022/09/02 03:58:47;;;;;;;0.50;0.40;;;17.90;50.30;;;;;;5074389;28;20115;-26
2022/09/02 04:01:19;;;;;;;0.60;0.30;;;17.90;50.40;;;;;;5074698;28;20021;-26
2022/09/02 04:03:45;;;;;;;0.75;0.47;;;17.80;50.30;;;;;;5074280;28;20078;-28
2022/09/02 04:06:12;;;;;;;3.13;0.38;;;17.80;50.30;;;;;;5073037;28;20029;-27
2022/09/02 04:08:43;;;;;;;0.55;0.40;;;17.80;50.40;;;;;;5074696;28;20021;-27
2022/09/02 04:11:13;;;;;;;0.55;0.40;;;17.80;50.50;;;;;;5074420;28;20036;-26
2022/09/02 04:13:39;;;;;;;0.75;0.52;;;17.80;50.50;;;;;;5072930;28;20020;-27
2022/09/02 04:16:11;;;;;;;0.40;0.40;;;17.80;50.60;;;;;;5073141;28;20068;-28
2022/09/02 04:18:37;;;;;;;0.40;0.40;;;17.80;50.60;;;;;;5074513;28;20471;-26
2022/09/02 04:21:03;;;;;;;0.50;0.35;;;17.80;50.60;;;;;;5074152;28;20119;-26
2022/09/02 04:23:29;;;;;;;0.65;0.50;;;17.80;50.70;;;;;;5074450;28;20413;-27
2022/09/02 04:25:55;;;;;;;3.72;0.50;;;17.80;50.70;;;;;;5074251;28;20031;-25
2022/09/02 04:28:21;;;;;;;1.55;0.57;;;17.80;50.70;;;;;;5074015;28;20428;-26
2022/09/02 04:30:47;;;;;;;0.65;0.60;;;17.70;50.60;;;;;;5073786;28;20377;-26
2022/09/02 04:33:12;;;;;;;1.95;0.60;;;17.70;50.60;;;;;;5074119;28;20116;-28
2022/09/02 04:35:43;;;;;;;1.70;0.70;;;17.80;50.70;;;;;;5072336;28;20495;-27
2022/09/02 04:38:10;;;;;;;1.05;0.50;;;17.70;50.70;;;;;;5074018;28;20048;-28
2022/09/02 04:40:40;;;;;;;1.40;0.50;;;17.70;50.80;;;;;;5073395;28;20037;-26
2022/09/02 04:43:06;;;;;;;0.85;0.40;;;17.60;50.70;;;;;;5073385;28;20024;-27
2022/09/02 04:45:31;;;;;;;0.85;0.43;;;17.70;50.80;;;;;;5073229;28;20028;-26
2022/09/02 04:47:57;;;;;;;0.68;0.50;;;17.70;50.90;;;;;;5073341;28;20430;-29
2022/09/02 04:50:23;;;;;;;1.40;0.40;;;17.70;50.90;;;;;;5073374;28;20028;-26
2022/09/02 04:52:48;;;;;;;0.60;0.50;;;17.60;50.90;;;;;;5073268;28;20036;-27
2022/09/02 04:55:14;;;;;;;0.77;0.50;;;17.60;51.00;;;;;;5074004;28;20496;-26
2022/09/02 04:57:39;;;;;;;1.10;0.47;;;17.60;51.00;;;;;;5073174;28;20040;-29
2022/09/02 05:00:07;;;;;;;1.17;0.40;;;17.60;51.00;;;;;;5073209;28;20040;-26
2022/09/02 05:02:32;;;;;;;1.80;0.40;;;17.60;51.00;;;;;;5073403;28;20032;-26
2022/09/02 05:04:58;;;;;;;0.77;0.40;;;17.60;51.10;;;;;;5073492;28;20090;-28
2022/09/02 05:07:24;;;;;;;1.45;0.57;;;17.60;51.10;;;;;;5073109;28;20054;-27
2022/09/02 05:09:55;;;;;;;1.95;0.57;;;17.50;51.10;;;;;;5073226;28;20021;-28
2022/09/02 05:12:21;;;;;;;0.88;0.47;;;17.50;51.20;;;;;;5073191;28;20036;-25
2022/09/02 05:14:47;;;;;;;1.92;0.55;;;17.50;51.20;;;;;;5072976;28;20067;-26
2022/09/02 05:17:14;;;;;;;2.17;0.63;;;17.50;51.30;;;;;;5072897;28;20028;-28
2022/09/02 05:19:40;;;;;;;1.85;0.60;;;17.50;51.40;;;;;;5073111;28;20107;-26
2022/09/02 05:22:05;;;;;;;0.75;0.50;;;17.50;51.40;;;;;;5073066;28;20105;-26
2022/09/02 05:24:31;;;;;;;0.40;0.40;;;17.50;51.40;;;;;;5073113;28;20033;-26
2022/09/02 05:26:56;;;;;;;0.63;0.40;;;17.50;51.40;;;;;;5072947;28;20017;-27
2022/09/02 05:29:22;;;;;;;1.83;0.50;;;17.50;51.50;;;;;;5072911;28;20036;-26
2022/09/02 05:31:48;;;;;;;0.73;0.30;;;17.50;51.50;;;;;;5072688;28;20050;-27
2022/09/02 05:34:15;;;;;;;0.60;0.50;;;17.50;51.60;;;;;;5072963;28;20384;-29
2022/09/02 05:36:41;;;;;;;0.65;0.50;;;17.40;51.60;;;;;;5072550;28;20028;-27
2022/09/02 05:39:08;;;;;;;1.58;0.50;;;17.40;51.70;;;;;;5073029;28;20025;-27
2022/09/02 05:41:33;;;;;;;0.60;0.50;;;17.40;51.70;;;;;;5072715;28;20111;-27
2022/09/02 05:44:01;;;;;;;1.60;0.65;;;17.40;51.70;;;;;;5071079;28;20373;-29
2022/09/02 05:46:27;;;;;;;1.10;0.63;;;17.40;51.80;;;;;;5072088;28;20040;-26
2022/09/02 05:49:07;;;;;;;0.55;0.30;;;17.50;51.80;;;;;;5072675;28;20024;-27
2022/09/02 05:51:40;;;;;;;2.60;0.50;;;17.50;51.80;;;;;;5072299;28;20024;-26
2022/09/02 05:54:08;;;;;;;0.77;0.40;;;17.50;51.70;;;;;;5072909;28;20036;-26
2022/09/02 05:56:34;;;;;;;2.03;0.40;;;17.60;51.60;;;;;;5072132;28;20048;-24
2022/09/02 05:58:59;;;;;;;1.38;0.50;;;17.60;51.60;;;;;;5072138;28;20502;-29
2022/09/02 06:01:25;;;;;;;0.95;0.57;;;17.70;51.60;;;;;;5072293;28;20101;-26
2022/09/02 06:03:51;;;;;;;0.55;0.50;;;17.80;51.50;;;;;;5072239;28;20020;-27
2022/09/02 06:06:18;;;;;;;1.20;0.60;;;17.90;51.40;;;;;;5072304;28;20154;-27
2022/09/02 06:08:44;;;;;;;0.50;0.50;;;17.90;51.30;;;;;;5072295;28;20036;-29
2022/09/02 06:11:11;;;;;;;1.95;0.50;;;18.00;51.30;;;;;;5072126;28;20031;-28
2022/09/02 06:13:39;;;;;;;0.40;0.40;;;18.10;51.30;;;;;;5072608;28;20062;-28
2022/09/02 06:16:07;;;;;;;1.02;0.43;;;18.10;51.20;;;;;;5071990;28;20119;-25
2022/09/02 06:18:33;;;;;;;1.15;0.60;;;18.20;51.20;;;;;;5072256;28;20070;-26
2022/09/02 06:21:00;;;;;;;0.85;0.50;;;18.30;51.10;;;;;;5070917;28;20478;-26
2022/09/02 06:23:26;;;;;;;0.47;0.30;;;18.30;50.90;;;;;;5072189;28;20021;-28
2022/09/02 06:25:52;;;;;;;0.60;0.50;;;18.40;51.00;;;;;;5072407;28;20032;-31
2022/09/02 06:28:17;;;;;;;0.70;0.60;;;18.50;51.00;;;;;;5072012;28;20025;-29
2022/09/02 06:30:46;;;;;;;1.88;0.60;;;18.50;50.90;;;;;;5072364;28;20044;-28
2022/09/02 06:33:11;;;;;;;0.40;0.40;;;18.50;50.90;;;;;;5071911;28;20028;-27
2022/09/02 06:35:40;;;;;;;0.60;0.43;;;18.50;51.00;;;;;;5071828;28;20028;-27
2022/09/02 06:38:06;;;;;;;1.13;0.43;;;18.50;51.00;;;;;;5073066;28;20107;-28
2022/09/02 06:40:32;;;;;;;3.25;0.60;;;18.40;51.00;;;;;;5074233;28;20024;-27
2022/09/02 06:42:58;;;;;;;1.02;0.40;;;18.40;51.00;;;;;;5075587;28;20108;-28
2022/09/02 06:45:23;;;;;;;0.93;0.80;;;18.40;51.70;;;;;;5075537;28;20021;-27
2022/09/02 06:47:52;;;;;;;2.95;0.80;;;18.30;51.10;;;;;;5075750;28;20032;-28
2022/09/02 06:50:18;;;;;;;1.05;0.68;;;18.30;51.20;;;;;;5075664;28;20060;-29
2022/09/02 06:52:44;;;;;;;0.75;0.47;;;18.30;51.20;;;;;;5075819;28;20555;-28
2022/09/02 06:55:10;;;;;;;0.95;0.70;;;18.30;51.90;;;;;;5075891;28;20060;-32
2022/09/02 06:57:37;;;;;;;2.25;0.57;;;18.40;51.30;;;;;;5075592;28;20403;-30
2022/09/02 07:00:06;;;;;;;1.52;0.47;;;18.40;51.40;;;;;;5075557;28;20082;-30
2022/09/02 07:02:31;;;;;;;2.85;0.65;;;18.40;51.40;;;;;;5075168;28;20099;-29
2022/09/02 07:05:10;;;;;;;1.02;0.40;;;18.40;51.30;;;;;;5075499;28;20055;-26
2022/09/02 07:07:40;;;;;;;1.15;0.60;;;18.50;51.30;;;;;;5075287;28;20038;-26
2022/09/02 07:10:08;;;;;;;1.10;0.60;;;18.50;51.20;;;;;;5075174;28;20028;-28
2022/09/02 07:12:35;;;;;;;2.13;0.60;;;18.60;51.10;;;;;;5075080;28;20465;-31
2022/09/02 07:15:02;;;;;;;1.58;0.60;;;18.70;51.10;;;;;;5075007;28;20041;-30
2022/09/02 07:17:28;;;;;;;1.20;0.82;;;18.80;51.10;;;;;;5074920;28;20028;-28
2022/09/02 07:19:56;;;;;;;1.45;0.60;;;18.90;51.00;;;;;;5074976;28;20024;-27
2022/09/02 07:22:22;;;;;;;0.88;0.57;;;19.00;51.00;;;;;;5075032;28;20036;-27
2022/09/02 07:24:47;;;;;;;0.98;0.52;;;19.10;50.80;;;;;;5074996;28;20052;-29
2022/09/02 07:27:13;;;;;;;2.67;0.60;;;19.20;50.70;;;;;;5074784;28;20032;-28
2022/09/02 07:29:40;;;;;;;1.27;0.57;;;19.30;50.60;;;;;;5073298;28;20514;-27
2022/09/02 07:32:06;;;;;;;1.65;0.60;;;19.40;50.50;;;;;;5075180;28;20387;-28
2022/09/02 07:34:31;;;;;;;1.95;0.50;;;19.60;50.40;;;;;;5075263;28;20032;-32
2022/09/02 07:36:57;;;;;;;1.08;0.50;;;19.60;50.30;;;;;;5074833;28;20036;-30
2022/09/02 07:39:23;;;;;;;2.85;0.57;;;19.80;50.30;;;;;;5075385;28;20036;-28
2022/09/02 07:41:50;;;;;;;2.20;0.88;;;19.80;50.20;;;;;;5075265;28;20046;-28
2022/09/02 07:44:17;;;;;;;2.90;0.50;;;19.90;50.10;;;;;;5074816;28;20028;-28
2022/09/02 07:46:43;;;;;;;1.95;0.52;;;20.00;50.00;;;;;;5074689;28;20119;-28
2022/09/02 07:49:10;;;;;;;2.10;0.60;;;20.20;50.00;;;;;;5074536;28;20052;-29
2022/09/02 07:51:39;;;;;;;1.27;0.63;;;20.40;49.80;;;;;;5074966;28;20109;-28
2022/09/02 07:54:06;;;;;;;3.03;0.65;;;20.50;49.60;;;;;;5074956;28;20020;-30
2022/09/02 07:56:32;;;;;;;0.85;0.50;;;20.60;49.50;;;;;;5074705;28;20032;-33
2022/09/02 07:58:58;;;;;;;2.63;0.77;;;20.60;49.40;;;;;;5074810;28;20081;-29
2022/09/02 08:01:24;;;;;;;2.03;0.70;;;20.60;49.30;;;;;;5074494;28;20032;-29
2022/09/02 08:03:50;;;;;;;0.70;0.50;;;20.70;49.40;;;;;;5074662;28;20033;-30
2022/09/02 08:06:16;;;;;;;0.77;0.55;;;20.70;49.40;;;;;;5074626;28;20469;-29
2022/09/02 08:08:42;;;;;;;1.52;0.93;;;20.70;49.40;;;;;;5073290;28;20125;-31
2022/09/02 08:11:08;;;;;;;2.25;0.60;;;20.80;49.40;;;;;;5074621;28;20028;-28
2022/09/02 08:13:36;;;;;;;3.20;0.73;;;20.70;49.30;;;;;;5074118;28;20039;-29
2022/09/02 08:16:02;;;;;;;0.95;0.68;;;20.80;49.40;;;;;;5074468;28;20039;-29
2022/09/02 08:18:28;;;;;;;2.35;0.70;;;20.80;49.40;;;;;;5074033;28;20050;-28
2022/09/02 08:20:54;;;;;;;2.08;0.60;;;20.80;49.40;;;;;;5074298;28;20028;-29
2022/09/02 08:23:20;;;;;;;1.45;0.70;;;20.80;49.30;;;;;;5073056;28;20021;-32
2022/09/02 08:25:46;;;;;;;1.38;0.65;;;20.90;49.40;;;;;;5073934;28;20103;-29
2022/09/02 08:28:12;;;;;;;2.65;0.90;;;21.00;49.30;;;;;;5073963;28;20510;-31
2022/09/02 08:30:39;;;;;;;1.30;0.63;;;21.10;49.10;;;;;;5074148;28;20035;-28
2022/09/02 08:33:05;;;;;;;0.88;0.70;;;21.30;49.00;;;;;;5074004;28;20058;-30
2022/09/02 08:35:30;;;;;;;2.17;0.90;;;21.40;48.70;;;;;;5073703;28;20414;-33
2022/09/02 08:37:59;;;;;;;1.60;0.85;;;21.40;48.60;;;;;;5073823;28;20035;-31
2022/09/02 08:40:36;;;;;;;1.60;0.80;;;21.50;48.50;;;;;;5074076;28;20478;-29
2022/09/02 08:43:06;;;;;;;2.88;0.93;;;21.60;48.40;;;;;;5074184;28;20035;-29
2022/09/02 08:45:36;;;;;;;1.63;0.85;;;21.60;48.30;;;;;;5073399;28;20027;-31
2022/09/02 08:48:48;;;;;;;2.17;0.80;;;21.70;48.30;;;;;;5073992;28;20029;-30
2022/09/02 08:51:34;;;;;;;2.05;0.82;;;21.80;48.20;;;;;;5071279;28;20067;-30
2022/09/02 08:54:10;;;;;;;1.30;0.70;;;21.80;48.10;;;;;;5071322;28;20037;-30
2022/09/02 08:56:36;;;;;;;1.67;0.80;;;21.90;48.20;;;;;;5073015;28;20031;-30
2022/09/02 08:59:02;;;;;;;3.30;0.80;;;22.00;48.10;;;;;;5073126;28;20103;-29
2022/09/02 09:01:49;;;;;;;1.60;0.90;;;22.00;48.00;;;;;;5072305;28;20055;-33
2022/09/02 09:04:36;;;;;;;2.05;0.90;;;22.00;48.00;;;;;;5073066;28;20029;-28
2022/09/02 09:07:40;;;;;;;2.97;0.90;;;22.00;48.10;;;;;;5072996;28;20527;-35
2022/09/02 09:10:16;;;;;;;2.88;0.70;;;22.00;48.10;;;;;;5073108;28;20040;-28
2022/09/02 09:12:48;;;;;;;1.92;0.77;;;22.00;48.00;;;;;;5072772;28;20103;-29
2022/09/02 09:15:32;;;;;;;0.73;0.70;;;22.10;48.10;;;;;;5073148;28;20043;-31
2022/09/02 09:18:05;;;;;;;3.28;0.90;;;22.10;48.00;;;;;;5072737;28;20035;-28
2022/09/02 09:20:34;;;;;;;0.85;0.70;;;22.20;48.00;;;;;;5072641;28;20127;-32
2022/09/02 09:23:05;;;;;;;2.38;0.77;;;22.20;47.90;;;;;;5071346;28;20028;-28
2022/09/02 09:25:31;;;;;;;1.38;0.90;;;22.30;47.90;;;;;;5072509;28;20547;-28
2022/09/02 09:27:58;;;;;;;0.90;0.77;;;22.40;47.80;;;;;;5072544;28;20104;-30
2022/09/02 09:30:24;;;;;;;4.72;0.98;;;22.40;47.70;;;;;;5072870;28;20120;-29
2022/09/02 09:32:53;;;;;;;2.53;0.80;;;22.50;48.20;;;;;;5072630;28;20428;-28
2022/09/02 09:35:20;;;;;;;1.83;0.80;;;22.60;47.60;;;;;;5072770;28;20032;-28
2022/09/02 09:37:51;;;;;;;1.33;0.80;;;22.60;47.60;;;;;;5071191;28;20062;-32
2022/09/02 09:40:22;;;;;;;2.15;0.82;;;22.70;47.60;;;;;;5070811;28;20039;-33
2022/09/02 09:43:01;;;;;;;2.63;1.05;;;22.70;47.40;;;;;;5072657;28;20101;-29
2022/09/02 09:45:41;;;;;;;2.58;0.90;;;22.80;47.40;;;;;;5072098;28;20028;-33
2022/09/02 09:48:22;;;;;;;2.60;0.98;;;22.80;47.40;;;;;;5072427;28;20104;-31
2022/09/02 09:51:10;;;;;;;1.17;0.80;;;22.90;47.30;;;;;;5072626;28;20193;-27
2022/09/02 09:53:37;;;;;;;1.63;0.90;;;23.00;47.30;;;;;;5072189;28;20032;-28
2022/09/02 09:56:14;;;;;;;2.95;0.93;;;23.10;47.20;;;;;;5072642;28;20036;-33
2022/09/02 09:58:40;;;;;;;3.42;0.88;;;23.20;47.10;;;;;;5072248;28;20029;-28
2022/09/02 10:01:22;;;;;;;1.50;0.85;;;23.30;47.00;;;;;;5070917;28;20154;-30
2022/09/02 10:03:54;;;;;;;2.08;1.00;;;23.40;46.80;;;;;;5072631;28;20044;-27
2022/09/02 10:06:28;;;;;;;1.63;1.10;;;23.50;46.80;;;;;;5072092;28;20086;-28
2022/09/02 10:08:56;;;;;;;1.08;0.98;;;23.60;46.80;;;;;;5072417;28;20462;-27
2022/09/02 10:12:03;;;;;;;1.77;1.00;;;23.80;46.70;;;;;;5072276;28;20051;-27
2022/09/02 10:14:47;;;;;;;2.22;0.93;;;23.90;46.50;;;;;;5075040;28;20030;-25
2022/09/02 10:17:24;;;;;;;4.30;1.10;;;23.90;46.40;;;;;;5076068;28;20198;-31
2022/09/02 10:20:11;;;;;;;2.25;1.02;;;23.90;46.20;;;;;;5076058;28;20073;-25
2022/09/02 10:22:59;;;;;;;1.95;1.10;;;23.90;46.30;;;;;;5076339;28;20109;-26
2022/09/02 10:25:49;;;;;;;1.60;0.77;;;24.00;46.40;;;;;;5076050;28;20491;-27
2022/09/02 10:28:52;;;;;;;2.10;1.10;;;24.10;46.30;;;;;;5075817;28;20477;-27
2022/09/02 10:31:43;;;;;;;2.88;0.90;;;24.10;46.10;;;;;;5076009;28;20024;-26
2022/09/02 10:34:24;;;;;;;2.97;0.80;;;24.10;46.10;;;;;;5076062;28;20021;-25
2022/09/02 10:37:16;;;;;;;3.10;1.10;;;24.20;46.20;;;;;;5076248;28;20025;-27
2022/09/02 10:40:09;;;;;;;1.73;1.05;;;24.20;46.10;;;;;;5075760;28;20054;-29
2022/09/02 10:43:03;;;;;;;1.38;1.15;;;24.30;46.10;;;;;;5075879;28;20492;-29
2022/09/02 10:45:45;;;;;;;1.70;1.00;;;24.30;46.10;;;;;;5075735;28;20530;-26
2022/09/02 10:48:25;;;;;;;1.35;0.90;;;24.30;46.10;;;;;;5075905;28;20023;-26
2022/09/02 10:51:14;;;;;;;2.85;1.00;;;24.40;46.00;;;;;;5075616;28;20028;-30
2022/09/02 10:54:28;;;;;;;3.72;1.10;;;24.50;45.90;;;;;;5075166;28;20048;-27
2022/09/02 10:57:24;;;;;;;1.50;0.85;;;24.60;45.80;;;;;;5074363;28;20365;-26
2022/09/02 10:59:52;;;;;;;1.38;0.75;;;24.70;45.80;;;;;;5075213;28;20094;-26
2022/09/02 11:02:30;;;;;;;2.95;1.20;;;24.80;45.80;;;;;;5075354;28;20043;-27
2022/09/02 11:05:04;;;;;;;1.98;1.25;;;24.90;45.50;;;;;;5075363;28;20472;-28
2022/09/02 11:07:40;;;;;;;1.10;1.00;;;25.00;45.40;;;;;;5073965;28;20055;-28
2022/09/02 11:10:26;;;;;;;2.58;1.10;;;25.10;45.30;;;;;;5075918;28;20112;-30
2022/09/02 11:13:00;;;;;;;3.25;1.00;;;25.10;45.20;;;;;;5075438;28;20429;-28
2022/09/02 11:15:40;;;;;;;1.58;1.02;;;25.20;45.10;;;;;;5075396;28;20332;-28
2022/09/02 11:18:16;;;;;;;2.90;1.10;;;25.20;45.00;;;;;;5074280;28;20459;-29
2022/09/02 11:21:11;;;;;;;2.88;1.25;;;25.30;45.00;;;;;;5075267;28;20059;-44
2022/09/02 11:23:40;;;;;;;3.35;1.20;;;25.40;44.90;;;;;;5074042;28;20029;-44
2022/09/02 11:26:28;;;;;;;2.20;1.13;;;25.40;44.80;;;;;;5075316;28;20027;-43
2022/09/02 11:29:32;;;;;;;1.73;1.08;;;25.60;44.60;;;;;;5073559;28;20035;-44
2022/09/02 11:32:03;;;;;;;1.27;1.17;;;25.60;44.10;;;;;;5074605;28;20039;-42
2022/09/02 11:34:33;;;;;;;1.30;1.20;;;25.60;44.10;;;;;;5073530;28;20021;-43
2022/09/02 11:37:11;;;;;;;2.30;1.20;;;25.60;43.90;;;;;;5074996;28;20025;-43
2022/09/02 11:39:46;;;;;;;2.05;1.08;;;25.60;43.20;;;;;;5074728;28;20553;-44
2022/09/02 11:42:36;;;;;;;2.25;1.08;;;25.60;43.00;;;;;;5074632;28;20009;-42
2022/09/02 11:45:17;;;;;;;1.27;1.13;;;25.60;42.60;;;;;;5074626;28;20032;-44
2022/09/02 11:48:08;;;;;;;1.00;0.90;;;25.60;42.40;;;;;;5074569;28;20396;-44
2022/09/02 11:50:48;;;;;;;4.00;1.00;;;25.70;42.30;;;;;;5074446;28;20352;-44
2022/09/02 11:53:18;;;;;;;2.00;1.10;;;25.70;42.00;;;;;;5072844;28;20506;-43
2022/09/02 11:55:56;;;;;;;3.80;1.10;;;25.80;42.00;;;;;;5074213;28;20025;-43
2022/09/02 11:58:39;;;;;;;1.58;0.95;;;25.90;41.90;;;;;;5074672;28;20020;-43
2022/09/02 12:01:20;;;;;;;1.20;1.10;;;26.00;41.90;;;;;;5074316;28;20064;-44
2022/09/02 12:03:52;;;;;;;2.72;1.23;;;26.10;42.00;;;;;;5074316;28;20021;-46
2022/09/02 12:06:19;;;;;;;2.20;1.10;;;26.20;41.90;;;;;;5074527;28;20508;-45
2022/09/02 12:08:47;;;;;;;2.63;1.25;;;26.20;41.60;;;;;;5074535;28;20055;-43
2022/09/02 12:11:39;;;;;;;1.20;1.10;;;26.30;41.70;;;;;;5074574;28;20020;-43
2022/09/02 12:14:24;;;;;;;1.40;1.00;;;26.30;41.30;;;;;;5074604;28;20456;-44
2022/09/02 12:17:10;;;;;;;2.80;1.10;;;26.40;41.20;;;;;;5073198;28;20131;-44
2022/09/02 12:19:39;;;;;;;1.23;1.10;;;26.50;41.10;;;;;;5073154;28;20100;-45
2022/09/02 12:22:14;;;;;;;1.25;1.00;;;26.50;40.90;;;;;;5074101;28;20056;-43
2022/09/02 12:24:57;;;;;;;1.98;1.40;;;26.60;40.70;;;;;;5073179;28;20103;-44
2022/09/02 12:27:35;;;;;;;2.70;1.10;;;26.60;40.30;;;;;;5074223;28;20052;-44
2022/09/02 12:30:03;;;;;;;1.40;1.30;;;26.60;40.30;;;;;;5074332;28;20052;-43
2022/09/02 12:32:50;;;;;;;2.30;1.23;;;26.70;40.30;;;;;;5073856;28;20476;-44
2022/09/02 12:35:31;;;;;;;2.33;1.45;;;26.70;40.30;;;;;;5073878;28;20498;-44
2022/09/02 12:38:20;;;;;;;1.83;1.13;;;26.80;40.30;;;;;;5073946;28;20024;-44
2022/09/02 12:41:04;;;;;;;3.60;1.20;;;26.90;40.00;;;;;;5073951;28;20020;-45
2022/09/02 12:43:43;;;;;;;1.85;1.10;;;26.90;39.80;;;;;;5073659;28;20115;-43
2022/09/02 12:46:36;;;;;;;1.33;1.00;;;27.00;39.50;;;;;;5073756;28;20040;-45
2022/09/02 12:49:13;;;;;;;2.30;1.00;;;26.90;39.10;;;;;;5073915;28;20024;-43
2022/09/02 12:51:52;;;;;;;1.85;0.98;;;26.80;39.10;;;;;;5073585;28;20028;-43
2022/09/02 12:54:37;;;;;;;1.25;1.08;;;26.70;39.30;;;;;;5073257;28;20017;-44
2022/09/02 12:57:05;;;;;;;2.50;1.10;;;26.70;39.30;;;;;;5073857;28;20032;-44
2022/09/02 12:59:33;;;;;;;1.50;0.98;;;26.80;39.30;;;;;;5074047;28;20032;-45
2022/09/02 13:02:21;;;;;;;1.10;1.00;;;27.00;39.00;;;;;;5073935;28;20496;-42
2022/09/02 13:05:14;;;;;;;3.75;1.20;;;27.20;38.70;;;;;;5073739;28;20052;-44
2022/09/02 13:08:05;;;;;;;1.42;1.00;;;27.30;38.70;;;;;;5073521;28;20024;-44